createdAt,value
2022-09-10T00:02:07.587Z,30.02
2022-09-10T00:04:34.758Z,23.77
2022-09-10T00:07:01.876Z,26.05
2022-09-10T00:09:29.124Z,31.67
2022-09-10T00:11:56.722Z,26.05
2022-09-10T00:14:24.599Z,24.70
2022-09-10T00:16:51.898Z,24.20
2022-09-10T00:19:19.621Z,23.63
2022-09-10T00:21:46.628Z,26.23
2022-09-10T00:24:13.607Z,29.02
2022-09-10T00:26:40.658Z,24.02
2022-09-10T00:29:10.923Z,26.10
2022-09-10T00:31:38.768Z,22.30
2022-09-10T00:34:06.835Z,24.45
2022-09-10T00:36:39.734Z,22.45
2022-09-10T00:39:13.397Z,27.42
2022-09-10T00:41:42.280Z,25.38
2022-09-10T00:44:40.502Z,21.95
2022-09-10T00:47:14.641Z,25.15
2022-09-10T00:49:45.374Z,30.17
2022-09-10T00:52:12.961Z,28.40
2022-09-10T00:54:42.141Z,22.17
2022-09-10T00:57:13.630Z,24.50
2022-09-10T00:59:46.685Z,24.30
2022-09-10T01:02:15.049Z,20.83
2022-09-10T01:04:43.182Z,24.67
2022-09-10T01:07:11.508Z,22.85
2022-09-10T01:09:40.502Z,19.63
2022-09-10T01:12:22.177Z,21.45
2022-09-10T01:14:55.047Z,20.55
2022-09-10T01:17:46.237Z,21.25
2022-09-10T01:20:19.971Z,26.23
2022-09-10T01:23:23.996Z,23.88
2022-09-10T01:26:25.904Z,21.27
2022-09-10T01:29:20.725Z,25.60
2022-09-10T01:31:59.471Z,18.98
2022-09-10T01:35:01.601Z,20.27
2022-09-10T01:37:32.994Z,20.73
2022-09-10T01:40:02.653Z,17.17
2022-09-10T01:42:32.694Z,19.00
2022-09-10T01:45:00.078Z,21.15
2022-09-10T01:48:09.901Z,17.38
2022-09-10T01:50:57.228Z,21.77
2022-09-10T01:53:45.733Z,23.52
2022-09-10T01:56:18.491Z,21.67
2022-09-10T01:58:46.968Z,20.48
2022-09-10T02:01:24.168Z,19.67
2022-09-10T02:03:56.916Z,26.70
2022-09-10T02:06:29.672Z,16.25
2022-09-10T02:09:00.641Z,22.23
2022-09-10T02:11:29.074Z,19.80
2022-09-10T02:13:59.549Z,22.20
2022-09-10T02:16:37.905Z,19.13
2022-09-10T02:19:06.485Z,21.77
2022-09-10T02:21:34.102Z,19.30
2022-09-10T02:24:10.078Z,20.73
2022-09-10T02:26:40.293Z,23.02
2022-09-10T02:29:08.306Z,20.25
2022-09-10T02:31:35.904Z,24.73
2022-09-10T02:34:05.654Z,22.50
2022-09-10T02:36:33.277Z,25.33
2022-09-10T02:39:00.543Z,20.45
2022-09-10T02:41:32.635Z,20.33
2022-09-10T02:44:01.863Z,17.27
2022-09-10T02:46:29.676Z,23.65
2022-09-10T02:48:56.908Z,20.85
2022-09-10T02:51:24.476Z,18.33
2022-09-10T02:53:52.273Z,21.27
2022-09-10T02:56:20.016Z,24.27
2022-09-10T02:58:47.006Z,25.88
2022-09-10T03:01:20.658Z,24.95
2022-09-10T03:03:56.856Z,22.65
2022-09-10T03:06:25.315Z,23.75
2022-09-10T03:08:52.364Z,19.02
2022-09-10T03:11:22.655Z,18.65
2022-09-10T03:13:50.907Z,18.35
2022-09-10T03:16:18.552Z,18.45
2022-09-10T03:18:45.828Z,20.02
2022-09-10T03:21:18.916Z,21.75
2022-09-10T03:23:49.537Z,19.50
2022-09-10T03:26:22.659Z,22.15
2022-09-10T03:28:50.239Z,22.33
2022-09-10T03:31:19.765Z,17.50
2022-09-10T03:33:49.310Z,20.08
2022-09-10T03:36:18.056Z,17.55
2022-09-10T03:38:47.585Z,20.00
2022-09-10T03:41:14.653Z,20.10
2022-09-10T03:43:41.652Z,23.25
2022-09-10T03:46:12.115Z,17.38
2022-09-10T03:48:43.725Z,25.80
2022-09-10T03:51:11.040Z,20.83
2022-09-10T03:53:39.096Z,17.85
2022-09-10T03:56:08.722Z,21.50
2022-09-10T03:58:36.176Z,20.60
2022-09-10T04:01:04.785Z,27.50
2022-09-10T04:03:35.179Z,25.67
2022-09-10T04:06:02.084Z,22.13
2022-09-10T04:08:28.995Z,24.63
2022-09-10T04:11:02.082Z,23.17
2022-09-10T04:13:29.167Z,20.95
2022-09-10T04:15:56.416Z,27.48
2022-09-10T04:18:26.581Z,27.77
2022-09-10T04:20:53.758Z,29.35
2022-09-10T04:23:20.805Z,30.08
2022-09-10T04:25:49.667Z,26.35
2022-09-10T04:28:17.128Z,29.05
2022-09-10T04:30:47.198Z,26.65
2022-09-10T04:33:15.224Z,25.45
2022-09-10T04:35:43.296Z,22.90
2022-09-10T04:38:12.061Z,26.65
2022-09-10T04:40:40.072Z,27.02
2022-09-10T04:43:08.883Z,30.92
2022-09-10T04:45:39.431Z,24.88
2022-09-10T04:48:07.334Z,23.42
2022-09-10T04:50:35.860Z,24.50
2022-09-10T04:53:23.130Z,22.02
2022-09-10T04:55:52.384Z,23.90
2022-09-10T04:58:19.483Z,20.13
2022-09-10T05:00:46.647Z,20.25
2022-09-10T05:03:14.741Z,16.88
2022-09-10T05:05:44.360Z,13.70
2022-09-10T05:08:12.863Z,11.60
2022-09-10T05:10:41.341Z,13.52
2022-09-10T05:13:09.126Z,10.25
2022-09-10T05:15:36.007Z,13.23
2022-09-10T05:18:05.005Z,10.35
2022-09-10T05:20:35.813Z,10.43
2022-09-10T05:23:02.783Z,10.15
2022-09-10T05:25:30.004Z,11.98
2022-09-10T05:27:58.636Z,16.45
2022-09-10T05:30:26.051Z,13.63
2022-09-10T05:32:53.680Z,11.52
2022-09-10T05:35:21.738Z,10.88
2022-09-10T05:37:48.856Z,14.23
2022-09-10T05:40:16.327Z,12.60
2022-09-10T05:42:44.149Z,9.23
2022-09-10T05:45:11.152Z,11.43
2022-09-10T05:47:38.152Z,10.90
2022-09-10T05:50:07.157Z,13.02
2022-09-10T05:52:34.612Z,8.30
2022-09-10T05:57:33.213Z,9.40
2022-09-10T06:00:01.325Z,6.97
2022-09-10T06:02:30.468Z,11.60
2022-09-10T06:04:58.857Z,6.28
2022-09-10T06:07:30.848Z,7.35
2022-09-10T06:09:57.906Z,6.03
2022-09-10T06:12:34.495Z,7.57
2022-09-10T06:15:03.764Z,4.50
2022-09-10T06:17:31.002Z,4.53
2022-09-10T06:19:58.028Z,4.00
2022-09-10T06:22:25.142Z,4.43
2022-09-10T06:24:53.855Z,6.32
2022-09-10T06:27:23.320Z,3.63
2022-09-10T06:29:51.639Z,5.03
2022-09-10T06:32:19.207Z,6.15
2022-09-10T06:34:47.042Z,4.47
2022-09-10T06:37:14.607Z,6.20
2022-09-10T06:39:41.833Z,3.47
2022-09-10T06:42:08.857Z,7.88
2022-09-10T06:44:54.219Z,5.60
2022-09-10T06:48:32.712Z,4.13
2022-09-10T06:50:37.675Z,2.17
2022-09-10T06:53:04.911Z,4.90
2022-09-10T06:55:34.846Z,3.83
2022-09-10T07:00:32.316Z,5.85
2022-09-10T07:03:01.164Z,3.47
2022-09-10T07:05:29.477Z,2.67
2022-09-10T07:07:57.662Z,2.63
2022-09-10T07:10:24.839Z,3.53
2022-09-10T07:12:52.094Z,2.45
2022-09-10T07:15:20.519Z,2.95
2022-09-10T07:17:47.479Z,4.55
2022-09-10T07:20:15.037Z,2.10
2022-09-10T07:22:46.784Z,2.60
2022-09-10T07:25:15.138Z,3.63
2022-09-10T07:28:03.878Z,2.92
2022-09-10T07:30:35.404Z,4.28
2022-09-10T07:33:02.558Z,3.95
2022-09-10T07:35:31.220Z,5.32
2022-09-10T07:38:00.239Z,6.75
2022-09-10T07:40:28.320Z,3.42
2022-09-10T07:42:56.448Z,2.78
2022-09-10T07:45:23.437Z,2.53
2022-09-10T07:47:51.045Z,4.47
2022-09-10T07:50:19.343Z,3.13
2022-09-10T07:52:49.908Z,2.58
2022-09-10T07:55:18.287Z,4.40
2022-09-10T07:57:45.645Z,1.75
2022-09-10T08:00:15.206Z,2.85
2022-09-10T08:02:43.256Z,2.10
2022-09-10T08:05:16.985Z,3.67
2022-09-10T08:07:45.083Z,2.53
2022-09-10T08:10:12.381Z,2.28
2022-09-10T08:12:41.261Z,2.65
2022-09-10T08:15:10.832Z,3.42
2022-09-10T08:17:40.226Z,5.35
2022-09-10T08:20:10.085Z,2.88
2022-09-10T08:22:40.033Z,5.22
2022-09-10T08:25:08.344Z,4.13
2022-09-10T08:27:38.215Z,6.80
2022-09-10T08:30:09.019Z,4.05
2022-09-10T08:32:37.513Z,9.32
2022-09-10T08:35:05.951Z,4.60
2022-09-10T08:37:34.267Z,4.35
2022-09-10T08:40:03.315Z,3.42
2022-09-10T08:42:40.090Z,2.53
2022-09-10T08:45:31.735Z,3.38
2022-09-10T08:48:03.444Z,8.75
2022-09-10T08:50:38.357Z,7.20
2022-09-10T08:53:35.040Z,2.45
2022-09-10T08:56:15.136Z,5.50
2022-09-10T08:58:51.008Z,10.15
2022-09-10T09:01:26.971Z,4.18
2022-09-10T09:03:57.489Z,3.80
2022-09-10T09:06:50.612Z,4.65
2022-09-10T09:09:18.786Z,3.53
2022-09-10T09:11:57.722Z,4.45
2022-09-10T09:14:55.916Z,4.88
2022-09-10T09:17:51.766Z,4.03
2022-09-10T09:20:34.005Z,5.22
2022-09-10T09:23:19.605Z,3.70
2022-09-10T09:26:04.445Z,3.22
2022-09-10T09:28:46.959Z,3.58
2022-09-10T09:31:27.718Z,4.43
2022-09-10T09:34:07.071Z,4.65
2022-09-10T09:36:40.150Z,4.45
2022-09-10T09:39:53.029Z,5.07
2022-09-10T09:42:57.620Z,7.45
2022-09-10T09:45:44.156Z,3.13
2022-09-10T09:48:16.508Z,4.93
2022-09-10T09:50:49.017Z,3.75
2022-09-10T09:53:27.696Z,4.13
2022-09-10T09:55:57.115Z,7.30
2022-09-10T09:58:26.896Z,2.85
2022-09-10T10:01:03.897Z,3.47
2022-09-10T10:03:35.740Z,4.70
2022-09-10T10:06:11.158Z,4.50
2022-09-10T10:08:43.669Z,6.05
2022-09-10T10:11:14.212Z,6.38
2022-09-10T10:13:43.893Z,8.75
2022-09-10T10:16:37.750Z,3.95
2022-09-10T10:19:27.400Z,4.60
2022-09-10T10:21:54.761Z,6.35
2022-09-10T10:24:33.979Z,7.35
2022-09-10T10:27:01.026Z,3.50
2022-09-10T10:29:28.227Z,10.65
2022-09-10T10:31:56.331Z,6.88
2022-09-10T10:34:34.972Z,7.20
2022-09-10T10:37:13.649Z,6.95
2022-09-10T10:40:14.277Z,8.02
2022-09-10T10:42:47.782Z,5.30
2022-09-10T10:45:49.329Z,8.40
2022-09-10T10:48:19.178Z,4.75
2022-09-10T10:51:23.468Z,8.93
2022-09-10T10:54:15.186Z,5.70
2022-09-10T10:56:47.110Z,6.70
2022-09-10T10:59:39.706Z,6.10
2022-09-10T11:02:18.229Z,5.18
2022-09-10T11:04:51.765Z,7.68
2022-09-10T11:07:29.785Z,7.35
2022-09-10T11:10:11.516Z,5.25
2022-09-10T11:12:50.851Z,10.50
2022-09-10T11:15:37.160Z,8.60
2022-09-10T11:18:13.247Z,5.97
2022-09-10T11:20:56.263Z,7.03
2022-09-10T11:23:29.694Z,9.70
2022-09-10T11:26:12.768Z,6.70
2022-09-10T11:28:54.435Z,6.25
2022-09-10T11:31:53.724Z,4.43
2022-09-10T11:34:34.652Z,6.95
2022-09-10T11:37:40.322Z,7.50
2022-09-10T11:40:18.800Z,8.85
2022-09-10T11:42:52.693Z,6.57
2022-09-10T11:45:36.452Z,10.25
2022-09-10T11:48:18.524Z,6.93
2022-09-10T11:51:07.294Z,5.80
2022-09-10T11:53:37.074Z,6.75
2022-09-10T11:56:49.996Z,7.70
2022-09-10T11:59:35.406Z,6.97
2022-09-10T12:02:43.232Z,10.80
2022-09-10T12:05:40.732Z,9.40
2022-09-10T12:08:48.659Z,6.68
2022-09-10T12:11:47.995Z,6.50
2022-09-10T12:14:20.023Z,5.50
2022-09-10T12:16:56.121Z,9.55
2022-09-10T12:19:29.788Z,7.40
2022-09-10T12:22:03.980Z,6.43
2022-09-10T12:24:34.279Z,4.90
2022-09-10T12:27:02.820Z,6.05
2022-09-10T12:29:34.407Z,8.32
2022-09-10T12:32:19.544Z,4.88
2022-09-10T12:34:48.524Z,4.93
2022-09-10T12:37:33.438Z,9.13
2022-09-10T12:40:28.265Z,6.85
2022-09-10T12:43:44.051Z,10.10
2022-09-10T12:46:12.670Z,4.70
2022-09-10T12:49:02.791Z,8.00
2022-09-10T12:51:46.334Z,4.95
2022-09-10T12:54:27.750Z,5.40
2022-09-10T12:57:21.381Z,7.85
2022-09-10T13:00:18.424Z,8.52
2022-09-10T13:02:53.331Z,4.32
2022-09-10T13:05:26.536Z,5.70
2022-09-10T13:08:08.586Z,6.93
2022-09-10T13:10:36.228Z,5.50
2022-09-10T13:13:07.038Z,4.97
2022-09-10T13:15:39.071Z,7.45
2022-09-10T13:18:25.606Z,5.03
2022-09-10T13:20:52.909Z,6.13
2022-09-10T13:23:22.149Z,5.93
2022-09-10T13:25:51.021Z,7.45
2022-09-10T13:28:36.975Z,5.90
2022-09-10T13:31:15.374Z,6.22
2022-09-10T13:33:52.178Z,8.57
2022-09-10T13:36:28.212Z,6.93
2022-09-10T13:38:57.603Z,9.93
2022-09-10T13:42:08.916Z,10.93
2022-09-10T13:45:23.746Z,7.22
2022-09-10T13:48:06.418Z,11.85
2022-09-10T13:50:40.844Z,5.93
2022-09-10T13:53:12.291Z,5.82
2022-09-10T13:55:48.921Z,12.27
2022-09-10T13:58:18.707Z,9.93
2022-09-10T14:00:58.559Z,7.63
2022-09-10T14:03:31.263Z,10.67
2022-09-10T14:06:10.651Z,5.13
2022-09-10T14:08:43.065Z,6.63
2022-09-10T14:11:12.884Z,9.65
2022-09-10T14:14:02.954Z,3.47
2022-09-10T14:16:41.380Z,8.65
2022-09-10T14:19:37.385Z,4.57
2022-09-10T14:22:09.450Z,4.63
2022-09-10T14:24:40.060Z,5.10
2022-09-10T14:27:23.210Z,7.70
2022-09-10T14:29:50.526Z,7.00
2022-09-10T14:32:30.936Z,7.25
2022-09-10T14:34:58.182Z,12.57
2022-09-10T14:37:36.979Z,4.25
2022-09-10T14:40:14.788Z,8.68
2022-09-10T14:42:41.983Z,8.35
2022-09-10T14:45:37.703Z,7.30
2022-09-10T14:48:05.775Z,6.43
2022-09-10T14:50:36.710Z,8.32
2022-09-10T14:53:03.626Z,5.35
2022-09-10T14:55:32.509Z,4.20
2022-09-10T14:57:59.978Z,7.93
2022-09-10T15:00:27.138Z,10.60
2022-09-10T15:02:57.387Z,6.25
2022-09-10T15:05:24.784Z,6.50
2022-09-10T15:07:51.737Z,7.60
2022-09-10T15:10:18.812Z,9.90
2022-09-10T15:12:49.920Z,8.15
2022-09-10T15:15:18.088Z,10.57
2022-09-10T15:17:45.335Z,7.82
2022-09-10T15:20:16.355Z,12.95
2022-09-10T15:22:43.832Z,8.38
2022-09-10T15:25:29.541Z,8.57
2022-09-10T15:27:56.750Z,8.25
2022-09-10T15:30:25.015Z,11.02
2022-09-10T15:32:54.429Z,12.60
2022-09-10T15:35:23.405Z,10.15
2022-09-10T15:37:51.337Z,14.35
2022-09-10T15:40:18.616Z,15.75
2022-09-10T15:42:46.002Z,15.57
2022-09-10T15:45:13.076Z,14.73
2022-09-10T15:47:41.970Z,12.90
2022-09-10T15:50:11.186Z,12.27
2022-09-10T15:52:38.740Z,14.95
2022-09-10T15:55:07.235Z,24.58
2022-09-10T15:57:36.001Z,12.35
2022-09-10T16:00:04.804Z,13.50
2022-09-10T16:02:32.089Z,18.42
2022-09-10T16:05:01.263Z,24.90
2022-09-10T16:07:30.367Z,19.08
2022-09-10T16:09:58.957Z,23.65
2022-09-10T16:12:27.535Z,27.25
2022-09-10T16:14:54.746Z,19.95
2022-09-10T16:17:21.954Z,19.63
2022-09-10T16:19:49.833Z,16.13
2022-09-10T16:22:20.567Z,14.57
2022-09-10T16:24:48.134Z,13.27
2022-09-10T16:27:17.617Z,11.68
2022-09-10T16:29:46.400Z,12.80
2022-09-10T16:32:13.652Z,14.57
2022-09-10T16:34:41.048Z,16.33
2022-09-10T16:37:08.708Z,11.60
2022-09-10T16:39:35.870Z,14.85
2022-09-10T16:42:03.068Z,18.58
2022-09-10T16:44:31.509Z,20.73
2022-09-10T16:46:59.468Z,30.83
2022-09-10T16:49:27.515Z,25.08
2022-09-10T16:51:54.861Z,25.40
2022-09-10T16:54:22.881Z,19.40
2022-09-10T16:56:50.533Z,12.48
2022-09-10T16:59:20.805Z,19.15
2022-09-10T17:01:49.680Z,11.57
2022-09-10T17:04:22.320Z,14.02
2022-09-10T17:06:52.195Z,11.88
2022-09-10T17:09:19.449Z,10.77
2022-09-10T17:11:46.521Z,16.63
2022-09-10T17:14:13.434Z,19.42
2022-09-10T17:16:43.896Z,15.50
2022-09-10T17:19:11.028Z,19.15
2022-09-10T17:21:40.276Z,17.25
2022-09-10T17:24:10.053Z,12.52
2022-09-10T17:26:37.805Z,17.95
2022-09-10T17:29:07.718Z,24.95
2022-09-10T17:31:35.957Z,12.23
2022-09-10T17:34:04.050Z,15.52
2022-09-10T17:36:33.084Z,26.60
2022-09-10T17:39:00.551Z,20.75
2022-09-10T17:41:29.136Z,18.15
2022-09-10T17:43:58.283Z,15.93
2022-09-10T17:46:26.705Z,17.70
2022-09-10T17:48:55.013Z,15.80
2022-09-10T17:51:24.951Z,23.65
2022-09-10T17:53:54.071Z,17.52
2022-09-10T17:56:22.644Z,20.67
2022-09-10T17:58:50.822Z,14.52
2022-09-10T18:01:26.946Z,21.55
2022-09-10T18:03:54.695Z,13.77
2022-09-10T18:06:24.553Z,14.93
2022-09-10T18:08:52.038Z,31.03
2022-09-10T18:11:22.752Z,16.48
2022-09-10T18:13:54.925Z,17.65
2022-09-10T18:16:24.590Z,19.80
2022-09-10T18:19:00.307Z,22.17
2022-09-10T18:21:31.980Z,25.80
2022-09-10T18:24:01.897Z,25.73
2022-09-10T18:26:33.051Z,20.00
2022-09-10T18:29:02.095Z,33.47
2022-09-10T18:31:34.931Z,22.15
2022-09-10T18:34:02.542Z,12.75
2022-09-10T18:36:31.538Z,19.83
2022-09-10T18:39:02.521Z,17.67
2022-09-10T18:41:32.258Z,53.17
2022-09-10T18:44:01.534Z,35.58
2022-09-10T18:46:31.367Z,27.10
2022-09-10T18:48:59.581Z,32.73
2022-09-10T18:51:28.206Z,29.70
2022-09-10T18:54:00.100Z,62.78
2022-09-10T18:56:30.221Z,22.88
2022-09-10T18:58:58.817Z,31.63
2022-09-10T19:01:27.881Z,37.05
2022-09-10T19:03:55.393Z,20.23
2022-09-10T19:06:24.702Z,44.47
2022-09-10T19:08:55.105Z,20.40
2022-09-10T19:11:24.504Z,27.65
2022-09-10T19:13:54.140Z,27.00
2022-09-10T19:16:24.746Z,54.47
2022-09-10T19:18:53.690Z,44.00
2022-09-10T19:21:21.817Z,28.65
2022-09-10T19:23:50.570Z,95.00
2022-09-10T19:26:19.305Z,48.30
2022-09-10T19:28:47.842Z,83.13
2022-09-10T19:31:17.083Z,47.92
2022-09-10T19:33:44.123Z,44.17
2022-09-10T19:36:13.672Z,32.42
2022-09-10T19:38:41.315Z,61.65
2022-09-10T19:41:14.341Z,60.65
2022-09-10T19:43:41.705Z,29.20
2022-09-10T19:46:12.943Z,33.00
2022-09-10T19:48:40.322Z,54.75
2022-09-10T19:51:10.500Z,42.30
2022-09-10T19:53:38.055Z,32.35
2022-09-10T19:56:06.378Z,35.83
2022-09-10T19:58:35.511Z,64.80
2022-09-10T20:01:10.684Z,53.67
2022-09-10T20:03:39.991Z,37.75
2022-09-10T20:06:08.787Z,31.02
2022-09-10T20:08:36.060Z,28.27
2022-09-10T20:11:05.982Z,54.92
2022-09-10T20:13:34.221Z,60.47
2022-09-10T20:16:02.723Z,45.58
2022-09-10T20:18:32.110Z,69.57
2022-09-10T20:21:12.208Z,43.47
2022-09-10T20:23:40.678Z,35.63
2022-09-10T20:26:12.649Z,43.38
2022-09-10T20:28:39.683Z,60.00
2022-09-10T20:31:09.082Z,41.78
2022-09-10T20:33:37.801Z,53.60
2022-09-10T20:36:08.356Z,45.13
2022-09-10T20:38:35.211Z,54.67
2022-09-10T20:41:02.250Z,50.38
2022-09-10T20:43:29.753Z,76.30
2022-09-10T20:45:57.565Z,48.50
2022-09-10T20:48:24.915Z,59.97
2022-09-10T20:50:56.281Z,43.55
2022-09-10T20:53:23.376Z,45.45
2022-09-10T20:55:50.543Z,41.53
2022-09-10T20:58:18.269Z,54.67
2022-09-10T21:00:45.540Z,91.60
2022-09-10T21:03:13.282Z,57.97
2022-09-10T21:05:40.428Z,60.70
2022-09-10T21:08:07.312Z,90.57
2022-09-10T21:10:37.625Z,58.35
2022-09-10T21:13:04.913Z,91.70
2022-09-10T21:15:32.093Z,45.85
2022-09-10T21:17:58.972Z,75.82
2022-09-10T21:20:25.891Z,48.85
2022-09-10T21:22:52.805Z,44.00
2022-09-10T21:25:19.727Z,74.93
2022-09-10T21:27:47.288Z,84.45
2022-09-10T21:30:14.307Z,66.15
2022-09-10T21:32:41.200Z,47.70
2022-09-10T21:35:08.716Z,102.47
2022-09-10T21:37:35.752Z,74.78
2022-09-10T21:40:03.369Z,61.00
2022-09-10T21:42:30.503Z,46.60
2022-09-10T21:44:57.378Z,43.00
2022-09-10T21:47:24.267Z,39.03
2022-09-10T21:49:51.126Z,45.95
2022-09-10T21:52:18.007Z,34.83
2022-09-10T21:54:44.858Z,42.42
2022-09-10T21:57:13.049Z,42.65
2022-09-10T21:59:41.661Z,37.53
2022-09-10T22:02:08.806Z,54.70
2022-09-10T22:04:35.749Z,48.13
2022-09-10T22:07:04.695Z,56.22
2022-09-10T22:09:32.254Z,46.60
2022-09-10T22:11:59.229Z,40.90
2022-09-10T22:14:26.178Z,52.47
2022-09-10T22:16:53.887Z,37.25
2022-09-10T22:19:25.160Z,32.70
2022-09-10T22:21:54.366Z,40.00
2022-09-10T22:24:22.301Z,29.02
2022-09-10T22:26:49.276Z,28.90
2022-09-10T22:29:20.452Z,49.78
2022-09-10T22:31:48.555Z,55.75
2022-09-10T22:34:16.829Z,46.90
2022-09-10T22:36:45.184Z,33.88
2022-09-10T22:39:15.136Z,43.53
2022-09-10T22:41:43.040Z,35.50
2022-09-10T22:44:10.193Z,44.33
2022-09-10T22:46:39.860Z,34.97
2022-09-10T22:49:07.492Z,30.77
2022-09-10T22:51:36.816Z,35.75
2022-09-10T22:54:05.139Z,44.90
2022-09-10T22:56:32.819Z,33.50
2022-09-10T22:59:00.332Z,38.78
2022-09-10T23:01:34.055Z,37.40
2022-09-10T23:04:02.118Z,33.67
2022-09-10T23:06:32.132Z,34.50
2022-09-10T23:09:17.769Z,47.83
2022-09-10T23:11:45.590Z,45.33
2022-09-10T23:14:19.155Z,54.30
2022-09-10T23:16:48.677Z,53.85
2022-09-10T23:19:21.728Z,58.47
2022-09-10T23:21:51.265Z,59.70
2022-09-10T23:24:22.177Z,62.40
2022-09-10T23:26:49.230Z,60.22
2022-09-10T23:29:23.051Z,49.20
2022-09-10T23:31:53.455Z,49.70
2022-09-10T23:34:21.050Z,56.47
2022-09-10T23:36:49.362Z,55.10
2022-09-10T23:39:25.400Z,67.72
2022-09-10T23:41:55.013Z,68.25
2022-09-10T23:44:21.879Z,67.03
2022-09-10T23:46:49.146Z,74.35
2022-09-10T23:49:16.594Z,77.28
2022-09-10T23:51:43.682Z,86.82
2022-09-10T23:54:11.503Z,88.15
2022-09-10T23:56:39.611Z,85.07
2022-09-10T23:59:06.488Z,96.50
